createdAt,value
2023-02-07T00:01:21.647Z,-0.90
2023-02-07T00:03:48.425Z,-0.90
2023-02-07T00:06:17.888Z,-0.80
2023-02-07T00:08:45.090Z,-0.80
2023-02-07T00:11:16.351Z,-0.90
2023-02-07T00:13:44.683Z,-0.90
2023-02-07T00:16:12.283Z,-0.80
2023-02-07T00:18:39.266Z,-0.80
2023-02-07T00:21:09.728Z,-0.70
2023-02-07T00:23:37.462Z,-0.70
2023-02-07T00:26:05.021Z,-0.70
2023-02-07T00:28:32.009Z,-0.70
2023-02-07T00:31:09.270Z,-0.70
2023-02-07T00:33:38.096Z,-0.60
2023-02-07T00:36:07.499Z,-0.70
2023-02-07T00:38:34.737Z,-0.70
2023-02-07T00:41:02.037Z,-0.60
2023-02-07T00:43:32.562Z,-0.70
2023-02-07T00:46:01.163Z,-0.80
2023-02-07T00:48:29.290Z,-0.70
2023-02-07T00:50:56.200Z,-0.80
2023-02-07T00:53:23.520Z,-0.80
2023-02-07T00:55:50.478Z,-0.90
2023-02-07T00:58:17.355Z,-0.90
2023-02-07T01:00:44.069Z,-1.00
2023-02-07T01:03:10.752Z,-1.00
2023-02-07T01:05:37.892Z,-1.00
2023-02-07T01:08:04.986Z,-1.00
2023-02-07T01:10:32.690Z,-1.10
2023-02-07T01:12:59.533Z,-1.10
2023-02-07T01:15:26.762Z,-1.20
2023-02-07T01:17:53.514Z,-1.30
2023-02-07T01:20:20.237Z,-1.40
2023-02-07T01:22:46.910Z,-1.60
2023-02-07T01:25:13.560Z,-1.70
2023-02-07T01:27:40.328Z,-1.80
2023-02-07T01:30:07.263Z,-1.80
2023-02-07T01:32:34.263Z,-1.90
2023-02-07T01:35:01.203Z,-2.00
2023-02-07T01:37:28.042Z,-2.00
2023-02-07T01:39:55.064Z,-2.00
2023-02-07T01:42:24.601Z,-2.00
2023-02-07T01:44:51.237Z,-2.10
2023-02-07T01:47:21.109Z,-2.00
2023-02-07T01:49:49.089Z,-1.90
2023-02-07T01:52:23.158Z,-2.00
2023-02-07T01:54:55.361Z,-2.00
2023-02-07T01:57:22.887Z,-2.20
2023-02-07T01:59:51.959Z,-2.30
2023-02-07T02:02:22.177Z,-2.40
2023-02-07T02:04:51.683Z,-2.40
2023-02-07T02:07:19.051Z,-2.50
2023-02-07T02:09:45.692Z,-2.50
2023-02-07T02:12:37.065Z,-2.60
2023-02-07T02:15:09.913Z,-2.60
2023-02-07T02:17:46.634Z,-2.60
2023-02-07T02:20:18.902Z,-2.70
2023-02-07T02:22:55.613Z,-2.70
2023-02-07T02:25:25.299Z,-2.70
2023-02-07T02:27:54.786Z,-2.70
2023-02-07T02:30:30.163Z,-2.70
2023-02-07T02:33:32.213Z,-2.70
2023-02-07T02:36:19.694Z,-2.80
2023-02-07T02:39:05.388Z,-2.80
2023-02-07T02:42:04.524Z,-2.80
2023-02-07T02:45:05.459Z,-2.90
2023-02-07T02:47:33.280Z,-2.90
2023-02-07T02:50:00.159Z,-3.00
2023-02-07T02:52:44.647Z,-3.00
2023-02-07T02:55:16.672Z,-3.00
2023-02-07T02:58:21.431Z,-3.10
2023-02-07T03:01:08.409Z,-3.00
2023-02-07T03:03:46.989Z,-3.10
2023-02-07T03:06:35.485Z,-3.20
2023-02-07T03:09:28.433Z,-3.20
2023-02-07T03:12:07.075Z,-3.20
2023-02-07T03:14:51.105Z,-3.20
2023-02-07T03:18:01.332Z,-3.20
2023-02-07T03:20:39.051Z,-3.30
2023-02-07T03:23:08.840Z,-3.30
2023-02-07T03:25:36.879Z,-3.30
2023-02-07T03:28:05.061Z,-3.30
2023-02-07T03:30:34.542Z,-3.30
2023-02-07T03:33:07.984Z,-3.40
2023-02-07T03:36:03.737Z,-3.30
2023-02-07T03:38:30.664Z,-3.40
2023-02-07T03:41:01.573Z,-3.40
2023-02-07T03:43:34.750Z,-3.40
2023-02-07T03:46:01.467Z,-3.40
2023-02-07T03:48:28.342Z,-3.40
2023-02-07T03:50:55.064Z,-3.50
2023-02-07T03:53:21.849Z,-3.50
2023-02-07T03:55:48.499Z,-3.50
2023-02-07T03:58:15.181Z,-3.50
2023-02-07T04:00:42.020Z,-3.60
2023-02-07T04:03:08.751Z,-3.60
2023-02-07T04:05:35.725Z,-3.60
2023-02-07T04:08:02.473Z,-3.60
2023-02-07T04:10:29.264Z,-3.60
2023-02-07T04:12:56.027Z,-3.60
2023-02-07T04:15:22.812Z,-3.60
2023-02-07T04:17:49.441Z,-3.70
2023-02-07T04:20:16.228Z,-3.70
2023-02-07T04:22:42.902Z,-3.70
2023-02-07T04:25:09.637Z,-3.70
2023-02-07T04:27:36.343Z,-3.70
2023-02-07T04:30:03.220Z,-3.70
2023-02-07T04:32:29.881Z,-3.70
2023-02-07T04:34:56.696Z,-3.70
2023-02-07T04:37:23.439Z,-3.70
2023-02-07T04:39:50.316Z,-3.70
2023-02-07T04:42:17.178Z,-3.70
2023-02-07T04:44:43.872Z,-3.70
2023-02-07T04:47:10.594Z,-3.80
2023-02-07T04:49:37.467Z,-3.80
2023-02-07T04:52:04.213Z,-3.80
2023-02-07T04:54:31.061Z,-3.80
2023-02-07T04:56:57.773Z,-3.80
2023-02-07T04:59:24.447Z,-3.80
2023-02-07T05:01:51.106Z,-3.90
2023-02-07T05:04:18.077Z,-3.90
2023-02-07T05:06:44.896Z,-3.90
2023-02-07T05:09:11.803Z,-3.90
2023-02-07T05:11:38.486Z,-3.90
2023-02-07T05:14:05.111Z,-3.90
2023-02-07T05:16:31.752Z,-3.90
2023-02-07T05:18:58.588Z,-3.90
2023-02-07T05:21:25.329Z,-3.90
2023-02-07T05:23:52.129Z,-4.00
2023-02-07T05:26:19.132Z,-4.00
2023-02-07T05:28:45.980Z,-4.00
2023-02-07T05:31:12.798Z,-4.00
2023-02-07T05:33:39.605Z,-4.00
2023-02-07T05:36:07.051Z,-4.10
2023-02-07T05:38:33.718Z,-4.00
2023-02-07T05:41:00.473Z,-4.10
2023-02-07T05:43:27.192Z,-4.10
2023-02-07T05:45:53.995Z,-4.10
2023-02-07T05:48:20.693Z,-4.10
2023-02-07T05:50:47.909Z,-4.10
2023-02-07T05:53:14.799Z,-4.10
2023-02-07T05:55:41.621Z,-4.20
2023-02-07T05:58:08.405Z,-4.20
2023-02-07T06:00:35.096Z,-4.20
2023-02-07T06:03:01.815Z,-4.20
2023-02-07T06:05:31.657Z,-4.30
2023-02-07T06:07:58.543Z,-4.30
2023-02-07T06:10:25.531Z,-4.30
2023-02-07T06:12:52.320Z,-4.40
2023-02-07T06:15:19.118Z,-4.40
2023-02-07T06:17:45.807Z,-4.40
2023-02-07T06:20:12.815Z,-4.40
2023-02-07T06:22:39.518Z,-4.40
2023-02-07T06:25:10.551Z,-4.40
2023-02-07T06:27:40.730Z,-4.40
2023-02-07T06:30:09.161Z,-4.40
2023-02-07T06:32:35.926Z,-4.40
2023-02-07T06:35:02.828Z,-4.40
2023-02-07T06:37:29.546Z,-4.40
2023-02-07T06:39:56.249Z,-4.40
2023-02-07T06:42:22.957Z,-4.40
2023-02-07T06:44:49.966Z,-4.40
2023-02-07T06:47:16.727Z,-4.40
2023-02-07T06:49:43.385Z,-4.50
2023-02-07T06:52:10.106Z,-4.40
2023-02-07T06:54:37.126Z,-4.40
2023-02-07T06:57:03.893Z,-4.40
2023-02-07T06:59:30.796Z,-4.40
2023-02-07T07:01:57.728Z,-4.40
2023-02-07T07:04:24.402Z,-4.30
2023-02-07T07:06:51.057Z,-4.30
2023-02-07T07:09:17.913Z,-4.30
2023-02-07T07:11:44.762Z,-4.30
2023-02-07T07:14:12.320Z,-4.30
2023-02-07T07:16:40.914Z,-4.30
2023-02-07T07:19:07.616Z,-4.20
2023-02-07T07:21:34.578Z,-4.20
2023-02-07T07:24:01.245Z,-4.10
2023-02-07T07:26:33.816Z,-4.10
2023-02-07T07:29:09.699Z,-4.10
2023-02-07T07:31:36.375Z,-4.00
2023-02-07T07:34:03.141Z,-4.00
2023-02-07T07:36:29.869Z,-3.90
2023-02-07T07:38:56.533Z,-3.90
2023-02-07T07:41:23.698Z,-3.80
2023-02-07T07:43:50.412Z,-3.80
2023-02-07T07:46:17.070Z,-3.60
2023-02-07T07:48:43.787Z,-3.60
2023-02-07T07:51:10.463Z,-3.50
2023-02-07T07:53:37.096Z,-3.50
2023-02-07T07:56:04.088Z,-3.40
2023-02-07T07:58:30.941Z,-3.30
2023-02-07T08:00:57.607Z,-3.20
2023-02-07T08:03:24.461Z,-3.10
2023-02-07T08:05:51.502Z,-3.00
2023-02-07T08:08:19.855Z,-3.00
2023-02-07T08:10:47.253Z,-2.90
2023-02-07T08:13:14.146Z,-2.90
2023-02-07T08:15:41.605Z,-2.80
2023-02-07T08:18:08.238Z,-2.70
2023-02-07T08:20:35.119Z,-2.70
2023-02-07T08:23:02.225Z,-2.60
2023-02-07T08:25:29.006Z,-2.50
2023-02-07T08:27:55.793Z,-2.50
2023-02-07T08:30:22.618Z,-2.50
2023-02-07T08:32:51.625Z,-2.40
2023-02-07T08:35:18.726Z,-2.40
2023-02-07T08:37:45.749Z,-2.40
2023-02-07T08:40:12.998Z,-2.40
2023-02-07T08:42:40.008Z,-2.30
2023-02-07T08:45:07.417Z,-2.40
2023-02-07T08:47:34.271Z,-2.30
2023-02-07T08:50:00.916Z,-2.20
2023-02-07T08:52:29.031Z,-2.10
2023-02-07T08:54:56.484Z,-2.00
2023-02-07T08:57:25.591Z,-1.90
2023-02-07T08:59:53.291Z,-1.90
2023-02-07T09:02:20.377Z,-1.80
2023-02-07T09:04:47.547Z,-1.80
2023-02-07T09:07:14.856Z,-1.70
2023-02-07T09:09:41.827Z,-1.80
2023-02-07T09:12:09.724Z,-1.80
2023-02-07T09:14:37.143Z,-1.70
2023-02-07T09:17:04.680Z,-1.80
2023-02-07T09:19:31.639Z,-1.60
2023-02-07T09:21:58.283Z,-1.50
2023-02-07T09:24:25.203Z,-1.40
2023-02-07T09:26:51.998Z,-1.30
2023-02-07T09:29:19.336Z,-1.10
2023-02-07T09:31:46.473Z,-1.00
2023-02-07T09:34:13.271Z,-0.90
2023-02-07T09:36:40.160Z,-0.90
2023-02-07T09:39:07.277Z,-0.80
2023-02-07T09:41:52.693Z,-0.90
2023-02-07T09:44:34.939Z,-1.10
2023-02-07T09:47:10.498Z,-1.30
2023-02-07T09:49:43.696Z,-1.50
2023-02-07T09:52:25.152Z,-1.40
2023-02-07T09:54:54.523Z,-1.00
2023-02-07T09:57:27.204Z,-1.20
2023-02-07T10:00:02.505Z,-1.00
2023-02-07T10:02:39.963Z,-0.90
2023-02-07T10:05:19.871Z,-0.80
2023-02-07T10:07:48.031Z,-0.80
2023-02-07T10:10:26.799Z,-0.70
2023-02-07T10:13:23.516Z,-0.60
2023-02-07T10:15:50.396Z,-0.50
2023-02-07T10:18:30.181Z,-0.50
2023-02-07T10:21:20.267Z,-0.30
2023-02-07T10:24:24.867Z,-0.30
2023-02-07T10:26:53.771Z,-0.10
2023-02-07T10:29:26.334Z,0.00
2023-02-07T10:31:55.970Z,-0.10
2023-02-07T10:34:27.688Z,-0.10
2023-02-07T10:36:57.596Z,-0.10
2023-02-07T10:39:38.690Z,0.00
2023-02-07T10:42:05.843Z,0.20
2023-02-07T10:44:32.881Z,0.10
2023-02-07T10:47:04.521Z,0.00
2023-02-07T10:49:35.861Z,-0.20
2023-02-07T10:52:35.409Z,-0.30
2023-02-07T10:55:06.268Z,-0.20
2023-02-07T10:57:33.183Z,0.00
2023-02-07T11:00:23.475Z,0.10
2023-02-07T11:02:55.125Z,0.20
2023-02-07T11:05:25.172Z,0.30
2023-02-07T11:08:15.034Z,0.40
2023-02-07T11:10:44.083Z,0.60
2023-02-07T11:13:15.186Z,0.60
2023-02-07T11:15:56.856Z,0.60
2023-02-07T11:18:39.307Z,0.60
2023-02-07T11:21:18.472Z,0.90
2023-02-07T11:23:45.322Z,0.80
2023-02-07T11:26:12.334Z,0.80
2023-02-07T11:28:39.079Z,0.50
2023-02-07T11:31:08.409Z,0.80
2023-02-07T11:33:36.769Z,1.00
2023-02-07T11:36:30.617Z,0.50
2023-02-07T11:38:59.941Z,0.70
2023-02-07T11:41:29.649Z,0.80
2023-02-07T11:43:59.101Z,0.80
2023-02-07T11:46:42.116Z,1.00
2023-02-07T11:49:26.123Z,1.10
2023-02-07T11:51:58.894Z,1.20
2023-02-07T11:54:26.958Z,1.10
2023-02-07T11:57:01.621Z,1.20
2023-02-07T11:59:28.776Z,1.30
2023-02-07T12:01:58.593Z,1.40
2023-02-07T12:04:29.391Z,1.10
2023-02-07T12:07:11.832Z,1.00
2023-02-07T12:09:58.625Z,1.20
2023-02-07T12:12:39.446Z,1.20
2023-02-07T12:15:28.283Z,1.30
2023-02-07T12:18:21.118Z,1.40
2023-02-07T12:21:16.967Z,1.50
2023-02-07T12:23:52.238Z,1.60
2023-02-07T12:26:21.993Z,1.60
2023-02-07T12:29:13.182Z,1.70
2023-02-07T12:31:49.644Z,1.60
2023-02-07T12:34:48.307Z,1.20
2023-02-07T12:37:39.145Z,1.40
2023-02-07T12:40:09.017Z,1.60
2023-02-07T12:42:40.451Z,1.50
2023-02-07T12:45:14.992Z,1.60
2023-02-07T12:48:00.894Z,1.60
2023-02-07T12:50:39.339Z,1.60
2023-02-07T12:53:37.380Z,1.80
2023-02-07T12:56:22.087Z,1.80
2023-02-07T12:59:27.856Z,1.80
2023-02-07T13:02:32.338Z,1.90
2023-02-07T13:05:05.186Z,2.00
2023-02-07T13:08:00.893Z,2.00
2023-02-07T13:10:36.374Z,2.20
2023-02-07T13:13:17.513Z,2.30
2023-02-07T13:15:47.200Z,2.10
2023-02-07T13:18:51.624Z,2.20
2023-02-07T13:21:56.854Z,2.20
2023-02-07T13:24:27.220Z,2.30
2023-02-07T13:27:12.243Z,2.10
2023-02-07T13:29:40.332Z,2.00
2023-02-07T13:32:13.358Z,1.90
2023-02-07T13:34:58.141Z,1.90
2023-02-07T13:37:35.585Z,2.10
2023-02-07T13:40:26.727Z,1.90
2023-02-07T13:43:18.599Z,2.00
2023-02-07T13:46:03.312Z,2.00
2023-02-07T13:48:43.537Z,2.00
2023-02-07T13:51:48.576Z,2.10
2023-02-07T13:54:21.559Z,2.00
2023-02-07T13:57:18.117Z,2.00
2023-02-07T14:00:05.439Z,2.00
2023-02-07T14:02:42.016Z,2.10
2023-02-07T14:05:17.182Z,1.90
2023-02-07T14:07:53.007Z,2.00
2023-02-07T14:10:46.340Z,1.90
2023-02-07T14:13:32.505Z,2.00
2023-02-07T14:16:09.001Z,2.00
2023-02-07T14:18:52.643Z,2.10
2023-02-07T14:21:19.609Z,2.10
2023-02-07T14:24:01.316Z,2.20
2023-02-07T14:26:40.406Z,2.20
2023-02-07T14:29:25.261Z,2.20
2023-02-07T14:32:17.017Z,2.30
2023-02-07T14:34:59.016Z,2.30
2023-02-07T14:37:46.318Z,2.10
2023-02-07T14:40:35.089Z,2.10
2023-02-07T14:43:05.123Z,2.00
2023-02-07T14:45:35.069Z,2.00
2023-02-07T14:48:02.319Z,2.00
2023-02-07T14:50:33.778Z,2.00
2023-02-07T14:53:04.537Z,2.00
2023-02-07T14:55:42.256Z,1.90
2023-02-07T14:58:35.632Z,1.80
2023-02-07T15:01:02.402Z,1.90
2023-02-07T15:03:30.954Z,1.90
2023-02-07T15:05:59.960Z,1.90
2023-02-07T15:08:30.092Z,1.90
2023-02-07T15:11:04.054Z,1.90
2023-02-07T15:13:43.241Z,1.80
2023-02-07T15:16:15.781Z,1.80
2023-02-07T15:18:53.746Z,1.70
2023-02-07T15:21:26.680Z,1.60
2023-02-07T15:24:06.100Z,1.60
2023-02-07T15:26:35.113Z,1.50
2023-02-07T15:29:05.228Z,1.40
2023-02-07T15:31:39.026Z,1.40
2023-02-07T15:34:12.183Z,1.30
2023-02-07T15:36:41.754Z,1.30
2023-02-07T15:39:16.393Z,1.30
2023-02-07T15:41:46.083Z,1.20
2023-02-07T15:44:21.206Z,1.20
2023-02-07T15:46:49.430Z,1.10
2023-02-07T15:49:40.840Z,1.10
2023-02-07T15:52:42.962Z,1.10
2023-02-07T15:55:44.879Z,1.00
2023-02-07T15:58:31.588Z,1.00
2023-02-07T16:01:03.251Z,0.90
2023-02-07T16:03:43.156Z,0.90
2023-02-07T16:06:37.012Z,0.80
2023-02-07T16:09:04.494Z,0.80
2023-02-07T16:11:31.225Z,0.70
2023-02-07T16:14:23.332Z,0.60
2023-02-07T16:16:55.596Z,0.50
2023-02-07T16:19:26.333Z,0.50
2023-02-07T16:22:15.218Z,0.40
2023-02-07T16:24:44.702Z,0.30
2023-02-07T16:27:20.682Z,0.20
2023-02-07T16:29:48.134Z,0.10
2023-02-07T16:32:15.923Z,0.10
2023-02-07T16:34:58.918Z,0.10
2023-02-07T16:37:29.395Z,-0.10
2023-02-07T16:39:56.122Z,-0.20
2023-02-07T16:42:23.382Z,-0.20
2023-02-07T16:44:50.165Z,-0.30
2023-02-07T16:47:18.122Z,-0.40
2023-02-07T16:49:45.735Z,-0.40
2023-02-07T16:52:12.426Z,-0.40
2023-02-07T16:54:39.150Z,-0.60
2023-02-07T16:57:05.994Z,-0.60
2023-02-07T16:59:32.926Z,-0.70
2023-02-07T17:01:59.706Z,-0.70
2023-02-07T17:04:26.454Z,-0.80
2023-02-07T17:06:53.264Z,-0.70
2023-02-07T17:09:24.099Z,-0.80
2023-02-07T17:11:52.490Z,-0.90
2023-02-07T17:14:19.372Z,-0.90
2023-02-07T17:16:46.298Z,-1.00
2023-02-07T17:19:15.618Z,-1.00
2023-02-07T17:21:42.788Z,-1.00
2023-02-07T17:24:10.249Z,-1.10
2023-02-07T17:26:38.446Z,-1.10
2023-02-07T17:29:06.675Z,-1.10
2023-02-07T17:31:33.964Z,-1.20
2023-02-07T17:34:00.783Z,-1.20
2023-02-07T17:36:28.973Z,-1.20
2023-02-07T17:38:58.879Z,-1.30
2023-02-07T17:41:25.982Z,-1.30
2023-02-07T17:44:07.325Z,-1.30
2023-02-07T17:46:34.158Z,-1.30
2023-02-07T17:49:01.218Z,-1.20
2023-02-07T17:51:29.125Z,-1.30
2023-02-07T17:53:56.371Z,-1.30
2023-02-07T17:56:25.674Z,-1.40
2023-02-07T17:58:53.665Z,-1.40
2023-02-07T18:01:20.508Z,-1.40
2023-02-07T18:03:51.577Z,-1.40
2023-02-07T18:06:20.307Z,-1.50
2023-02-07T18:08:47.570Z,-1.50
2023-02-07T18:11:14.844Z,-1.60
2023-02-07T18:13:43.300Z,-1.60
2023-02-07T18:16:14.762Z,-1.60
2023-02-07T18:18:41.494Z,-1.60
2023-02-07T18:21:08.402Z,-1.60
2023-02-07T18:23:35.279Z,-1.60
2023-02-07T18:26:02.160Z,-1.60
2023-02-07T18:28:28.876Z,-1.70
2023-02-07T18:30:55.647Z,-1.70
2023-02-07T18:33:22.400Z,-1.70
2023-02-07T18:35:55.449Z,-1.70
2023-02-07T18:38:22.230Z,-1.70
2023-02-07T18:40:49.051Z,-1.80
2023-02-07T18:43:15.665Z,-1.70
2023-02-07T18:45:42.368Z,-1.70
2023-02-07T18:48:09.380Z,-1.70
2023-02-07T18:50:36.187Z,-1.70
2023-02-07T18:53:02.922Z,-1.70
2023-02-07T18:55:29.720Z,-1.70
2023-02-07T18:57:56.867Z,-1.80
2023-02-07T19:00:23.765Z,-1.90
2023-02-07T19:02:50.468Z,-2.00
2023-02-07T19:05:17.306Z,-2.00
2023-02-07T19:07:44.007Z,-2.00
2023-02-07T19:10:12.189Z,-2.10
2023-02-07T19:12:39.325Z,-2.10
2023-02-07T19:15:06.848Z,-2.10
2023-02-07T19:17:34.503Z,-2.10
2023-02-07T19:20:01.381Z,-2.20
2023-02-07T19:22:35.483Z,-2.20
2023-02-07T19:25:04.134Z,-2.20
2023-02-07T19:27:30.862Z,-2.20
2023-02-07T19:29:57.542Z,-2.20
2023-02-07T19:32:24.328Z,-2.30
2023-02-07T19:34:51.066Z,-2.30
2023-02-07T19:37:17.826Z,-2.30
2023-02-07T19:39:46.143Z,-2.40
2023-02-07T19:42:13.244Z,-2.40
2023-02-07T19:44:40.018Z,-2.30
2023-02-07T19:47:06.765Z,-2.30
2023-02-07T19:49:33.537Z,-2.30
2023-02-07T19:52:00.254Z,-2.30
2023-02-07T19:54:26.982Z,-2.40
2023-02-07T19:56:53.681Z,-2.40
2023-02-07T19:59:20.376Z,-2.50
2023-02-07T20:01:47.147Z,-2.40
2023-02-07T20:04:13.975Z,-2.40
2023-02-07T20:06:40.756Z,-2.50
2023-02-07T20:09:07.961Z,-2.40
2023-02-07T20:11:35.288Z,-2.50
2023-02-07T20:14:03.667Z,-2.50
2023-02-07T20:16:34.054Z,-2.50
2023-02-07T20:19:01.339Z,-2.50
2023-02-07T20:21:29.906Z,-2.50
2023-02-07T20:23:57.494Z,-2.50
2023-02-07T20:26:25.795Z,-2.40
2023-02-07T20:28:52.868Z,-2.50
2023-02-07T20:31:23.714Z,-2.50
2023-02-07T20:33:50.487Z,-2.50
2023-02-07T20:36:18.609Z,-2.50
2023-02-07T20:38:46.555Z,-2.50
2023-02-07T20:41:32.628Z,-2.50
2023-02-07T20:44:05.794Z,-2.60
2023-02-07T20:46:35.375Z,-2.60
2023-02-07T20:49:06.515Z,-2.60
2023-02-07T20:51:33.211Z,-2.60
2023-02-07T20:54:03.111Z,-2.70
2023-02-07T20:56:31.521Z,-2.70
2023-02-07T20:58:59.384Z,-2.80
2023-02-07T21:01:29.095Z,-2.80
2023-02-07T21:03:58.256Z,-2.90
2023-02-07T21:06:25.954Z,-2.80
2023-02-07T21:09:00.164Z,-2.80
2023-02-07T21:11:40.106Z,-2.90
2023-02-07T21:14:18.423Z,-3.00
2023-02-07T21:16:45.596Z,-3.00
2023-02-07T21:19:13.115Z,-3.00
2023-02-07T21:21:39.826Z,-3.00
2023-02-07T21:24:07.231Z,-3.10
2023-02-07T21:26:34.016Z,-3.10
2023-02-07T21:29:03.352Z,-3.10
2023-02-07T21:31:32.687Z,-3.20
2023-02-07T21:34:00.431Z,-3.20
2023-02-07T21:36:29.396Z,-3.20
2023-02-07T21:38:59.262Z,-3.30
2023-02-07T21:41:27.629Z,-3.30
2023-02-07T21:43:55.256Z,-3.30
2023-02-07T21:46:25.021Z,-3.30
2023-02-07T21:48:56.509Z,-3.30
2023-02-07T21:51:24.991Z,-3.40
2023-02-07T21:53:53.968Z,-3.40
2023-02-07T21:56:25.068Z,-3.40
2023-02-07T21:58:57.666Z,-3.50
2023-02-07T22:01:25.105Z,-3.50
2023-02-07T22:03:54.770Z,-3.50
2023-02-07T22:06:22.636Z,-3.50
2023-02-07T22:08:52.354Z,-3.50
2023-02-07T22:11:21.136Z,-3.60
2023-02-07T22:13:49.413Z,-3.50
2023-02-07T22:16:17.840Z,-3.50
2023-02-07T22:18:44.710Z,-3.50
2023-02-07T22:21:18.665Z,-3.40
2023-02-07T22:23:46.251Z,-3.40
2023-02-07T22:26:14.456Z,-3.40
2023-02-07T22:28:42.124Z,-3.40
2023-02-07T22:31:21.354Z,-3.50
2023-02-07T22:33:49.601Z,-3.40
2023-02-07T22:36:26.304Z,-3.50
2023-02-07T22:38:53.984Z,-3.40
2023-02-07T22:41:21.053Z,-3.40
2023-02-07T22:43:47.968Z,-3.50
2023-02-07T22:46:17.816Z,-3.50
2023-02-07T22:48:45.245Z,-3.50
2023-02-07T22:51:27.170Z,-3.60
2023-02-07T22:53:56.725Z,-3.50
2023-02-07T22:56:24.349Z,-3.50
2023-02-07T22:58:51.685Z,-3.60
2023-02-07T23:01:34.357Z,-3.60
2023-02-07T23:04:05.858Z,-3.50
2023-02-07T23:06:33.167Z,-3.60
2023-02-07T23:09:00.343Z,-3.60
2023-02-07T23:11:27.341Z,-3.60
2023-02-07T23:13:54.537Z,-3.60
2023-02-07T23:16:26.751Z,-3.60
2023-02-07T23:18:56.112Z,-3.60
2023-02-07T23:21:24.248Z,-3.60
2023-02-07T23:23:50.956Z,-3.60
2023-02-07T23:26:20.075Z,-3.70
2023-02-07T23:28:47.184Z,-3.70
2023-02-07T23:31:16.605Z,-3.60
2023-02-07T23:33:43.450Z,-3.60
2023-02-07T23:36:10.421Z,-3.60
2023-02-07T23:38:37.200Z,-3.70
2023-02-07T23:41:05.267Z,-3.60
2023-02-07T23:43:31.955Z,-3.70
2023-02-07T23:45:58.713Z,-3.70
2023-02-07T23:48:25.722Z,-3.70
2023-02-07T23:50:56.916Z,-3.70
2023-02-07T23:53:24.152Z,-3.70
2023-02-07T23:55:53.436Z,-3.80
2023-02-07T23:58:20.306Z,-3.80
